createdAt,value
2022-12-04T00:01:19.968Z,101886.22
2022-12-04T00:03:46.969Z,101882.50
2022-12-04T00:06:18.894Z,101888.53
2022-12-04T00:08:47.168Z,101888.53
2022-12-04T00:11:17.160Z,101873.75
2022-12-04T00:13:44.032Z,101873.47
2022-12-04T00:16:17.386Z,101876.09
2022-12-04T00:18:44.681Z,101867.41
2022-12-04T00:21:12.704Z,101860.44
2022-12-04T00:23:40.532Z,101875.34
2022-12-04T00:26:10.471Z,101865.69
2022-12-04T00:28:37.908Z,101856.84
2022-12-04T00:31:09.527Z,101861.97
2022-12-04T00:33:36.897Z,101861.84
2022-12-04T00:36:07.217Z,101849.75
2022-12-04T00:38:36.372Z,101863.75
2022-12-04T00:41:03.699Z,101836.50
2022-12-04T00:43:31.867Z,101860.25
2022-12-04T00:45:58.670Z,101861.13
2022-12-04T00:48:25.344Z,101842.50
2022-12-04T00:50:52.017Z,101835.34
2022-12-04T00:53:21.367Z,101856.59
2022-12-04T00:55:50.117Z,101846.16
2022-12-04T00:58:16.820Z,101860.31
2022-12-04T01:00:46.378Z,101857.50
2022-12-04T01:03:13.140Z,101853.31
2022-12-04T01:05:45.120Z,101866.50
2022-12-04T01:08:12.872Z,101866.44
2022-12-04T01:10:41.289Z,101845.25
2022-12-04T01:13:08.318Z,101865.50
2022-12-04T01:15:39.352Z,101852.50
2022-12-04T01:18:06.073Z,101862.88
2022-12-04T01:20:35.106Z,101872.66
2022-12-04T01:23:01.743Z,101863.06
2022-12-04T01:25:28.433Z,101879.94
2022-12-04T01:27:55.064Z,101857.94
2022-12-04T01:30:27.505Z,101870.09
2022-12-04T01:32:54.044Z,101871.81
2022-12-04T01:35:20.621Z,101861.50
2022-12-04T01:37:47.206Z,101857.75
2022-12-04T01:40:15.975Z,101873.63
2022-12-04T01:42:42.552Z,101842.25
2022-12-04T01:45:31.236Z,101869.25
2022-12-04T01:48:19.491Z,101848.84
2022-12-04T01:50:48.001Z,101859.28
2022-12-04T01:53:15.120Z,101862.88
2022-12-04T01:55:43.040Z,101855.88
2022-12-04T01:58:12.606Z,101853.84
2022-12-04T02:00:39.168Z,101862.88
2022-12-04T02:03:06.016Z,101855.69
2022-12-04T02:05:32.681Z,101860.03
2022-12-04T02:08:06.015Z,101848.47
2022-12-04T02:11:06.525Z,101858.19
2022-12-04T02:13:44.297Z,101849.16
2022-12-04T02:16:31.693Z,101860.69
2022-12-04T02:19:36.020Z,101855.31
2022-12-04T02:22:11.434Z,101855.38
2022-12-04T02:25:21.528Z,101860.03
2022-12-04T02:28:14.717Z,101847.69
2022-12-04T02:30:44.192Z,101848.66
2022-12-04T02:33:19.515Z,101850.31
2022-12-04T02:35:56.184Z,101849.28
2022-12-04T02:38:47.336Z,101847.88
2022-12-04T02:41:21.582Z,101856.59
2022-12-04T02:43:56.443Z,101848.59
2022-12-04T02:46:41.869Z,101854.75
2022-12-04T02:49:15.373Z,101848.34
2022-12-04T02:51:45.206Z,101810.69
2022-12-04T02:54:27.569Z,101844.75
2022-12-04T02:57:01.059Z,101842.06
2022-12-04T02:59:38.138Z,101836.69
2022-12-04T03:02:14.363Z,101824.28
2022-12-04T03:04:42.549Z,101816.47
2022-12-04T03:07:17.791Z,101831.38
2022-12-04T03:10:09.183Z,101819.88
2022-12-04T03:12:54.151Z,101820.00
2022-12-04T03:15:30.170Z,101828.88
2022-12-04T03:18:03.055Z,101811.22
2022-12-04T03:20:32.996Z,101826.97
2022-12-04T03:23:04.872Z,101824.22
2022-12-04T03:25:44.678Z,101827.94
2022-12-04T03:28:37.022Z,101803.31
2022-12-04T03:31:09.828Z,101834.97
2022-12-04T03:33:46.572Z,101829.53
2022-12-04T03:36:21.281Z,101827.88
2022-12-04T03:39:28.274Z,101829.53
2022-12-04T03:42:13.613Z,101825.09
2022-12-04T03:44:53.244Z,101834.84
2022-12-04T03:47:29.812Z,101822.50
2022-12-04T03:50:03.143Z,101819.88
2022-12-04T03:52:52.406Z,101825.09
2022-12-04T03:55:28.908Z,101824.22
2022-12-04T03:58:02.817Z,101810.91
2022-12-04T04:00:31.172Z,101795.03
2022-12-04T04:03:03.833Z,101816.22
2022-12-04T04:05:32.713Z,101816.09
2022-12-04T04:08:22.060Z,101814.44
2022-12-04T04:10:50.890Z,101816.16
2022-12-04T04:13:40.981Z,101794.13
2022-12-04T04:16:30.129Z,101820.56
2022-12-04T04:19:17.188Z,101813.34
2022-12-04T04:22:04.813Z,101801.19
2022-12-04T04:24:34.173Z,101814.50
2022-12-04T04:27:01.254Z,101811.88
2022-12-04T04:29:28.121Z,101776.91
2022-12-04T04:32:09.681Z,101821.59
2022-12-04T04:34:45.355Z,101815.25
2022-12-04T04:37:16.819Z,101810.72
2022-12-04T04:39:50.892Z,101817.88
2022-12-04T04:42:34.994Z,101816.91
2022-12-04T04:45:14.823Z,101806.56
2022-12-04T04:47:51.533Z,101813.34
2022-12-04T04:50:20.209Z,101823.09
2022-12-04T04:52:55.073Z,101802.91
2022-12-04T04:55:22.558Z,101825.66
2022-12-04T04:57:49.115Z,101825.56
2022-12-04T05:00:19.939Z,101824.66
2022-12-04T05:02:48.733Z,101822.88
2022-12-04T05:05:17.941Z,101815.84
2022-12-04T05:07:44.678Z,101806.91
2022-12-04T05:10:11.329Z,101822.81
2022-12-04T05:12:37.865Z,101807.78
2022-12-04T05:15:04.882Z,101806.97
2022-12-04T05:17:38.953Z,101813.34
2022-12-04T05:20:06.610Z,101819.47
2022-12-04T05:22:35.618Z,101819.41
2022-12-04T05:25:03.084Z,101818.66
2022-12-04T05:27:30.678Z,101817.72
2022-12-04T05:29:58.888Z,101822.81
2022-12-04T05:32:29.069Z,101822.09
2022-12-04T05:34:58.907Z,101827.47
2022-12-04T05:37:28.032Z,101822.16
2022-12-04T05:39:54.910Z,101825.72
2022-12-04T05:42:21.979Z,101821.09
2022-12-04T05:44:51.752Z,101808.72
2022-12-04T05:47:18.328Z,101820.19
2022-12-04T05:49:45.117Z,101803.53
2022-12-04T05:52:11.761Z,101815.84
2022-12-04T05:54:38.422Z,101792.94
2022-12-04T05:57:05.060Z,101805.09
2022-12-04T05:59:31.716Z,101789.28
2022-12-04T06:01:58.441Z,101807.66
2022-12-04T06:04:25.220Z,101811.13
2022-12-04T06:06:53.798Z,101808.50
2022-12-04T06:09:20.861Z,101810.34
2022-12-04T06:11:47.390Z,101787.56
2022-12-04T06:14:16.140Z,101812.13
2022-12-04T06:16:45.426Z,101799.59
2022-12-04T06:19:16.140Z,101802.41
2022-12-04T06:21:43.996Z,101785.59
2022-12-04T06:24:20.470Z,101810.34
2022-12-04T06:27:18.666Z,101807.66
2022-12-04T06:29:33.892Z,101801.38
2022-12-04T06:32:00.540Z,101790.03
2022-12-04T06:34:27.262Z,101806.75
2022-12-04T06:36:53.868Z,101809.44
2022-12-04T06:39:22.688Z,101787.63
2022-12-04T06:41:49.438Z,101813.97
2022-12-04T06:44:16.690Z,101812.22
2022-12-04T06:46:47.379Z,101789.22
2022-12-04T06:49:14.766Z,101817.66
2022-12-04T06:51:44.114Z,101815.72
2022-12-04T06:54:10.801Z,101803.47
2022-12-04T06:56:37.370Z,101822.03
2022-12-04T06:59:04.917Z,101806.16
2022-12-04T07:01:36.330Z,101804.56
2022-12-04T07:04:04.318Z,101825.56
2022-12-04T07:06:35.487Z,101819.34
2022-12-04T07:09:15.132Z,101806.22
2022-12-04T07:11:42.948Z,101822.03
2022-12-04T07:14:10.423Z,101818.59
2022-12-04T07:16:41.237Z,101840.72
2022-12-04T07:19:10.198Z,101830.09
2022-12-04T07:21:36.812Z,101845.22
2022-12-04T07:24:04.048Z,101836.50
2022-12-04T07:26:31.214Z,101827.66
2022-12-04T07:29:00.453Z,101833.56
2022-12-04T07:31:29.583Z,101850.53
2022-12-04T07:33:57.188Z,101839.13
2022-12-04T07:36:25.187Z,101833.88
2022-12-04T07:38:54.449Z,101845.16
2022-12-04T07:41:21.824Z,101840.59
2022-12-04T07:43:48.544Z,101845.97
2022-12-04T07:46:21.549Z,101849.44
2022-12-04T07:48:48.297Z,101823.84
2022-12-04T07:51:18.504Z,101844.97
2022-12-04T07:53:47.577Z,101847.72
2022-12-04T07:56:14.798Z,101832.84
2022-12-04T07:58:42.413Z,101852.13
2022-12-04T08:01:17.641Z,101848.59
2022-12-04T08:03:48.608Z,101848.59
2022-12-04T08:06:19.837Z,101844.06
2022-12-04T08:08:47.823Z,101839.72
2022-12-04T08:11:17.388Z,101842.22
2022-12-04T08:13:44.557Z,101860.75
2022-12-04T08:16:12.498Z,101842.22
2022-12-04T08:18:40.005Z,101863.25
2022-12-04T08:21:11.855Z,101855.31
2022-12-04T08:23:39.884Z,101862.38
2022-12-04T08:26:08.114Z,101857.94
2022-12-04T08:28:36.114Z,101854.38
2022-12-04T08:31:08.899Z,101867.63
2022-12-04T08:33:35.783Z,101880.81
2022-12-04T08:36:05.531Z,101879.00
2022-12-04T08:38:32.105Z,101880.66
2022-12-04T08:41:02.883Z,101857.75
2022-12-04T08:43:30.014Z,101876.97
2022-12-04T08:46:01.732Z,101879.53
2022-12-04T08:48:28.537Z,101846.72
2022-12-04T08:50:55.750Z,101857.69
2022-12-04T08:53:25.875Z,101847.25
2022-12-04T08:55:53.067Z,101860.38
2022-12-04T08:58:22.343Z,101861.31
2022-12-04T09:00:49.337Z,101855.06
2022-12-04T09:03:18.525Z,101838.19
2022-12-04T09:05:47.456Z,101859.41
2022-12-04T09:08:17.804Z,101870.88
2022-12-04T09:10:47.266Z,101855.53
2022-12-04T09:13:16.448Z,101846.84
2022-12-04T09:15:45.424Z,101847.59
2022-12-04T09:18:12.108Z,101855.25
2022-12-04T09:20:38.702Z,101852.56
2022-12-04T09:23:08.009Z,101854.16
2022-12-04T09:25:40.143Z,101853.38
2022-12-04T09:28:06.659Z,101859.47
2022-12-04T09:30:33.527Z,101840.13
2022-12-04T09:33:00.116Z,101863.50
2022-12-04T09:35:26.694Z,101851.19
2022-12-04T09:37:53.289Z,101865.03
2022-12-04T09:40:36.821Z,101865.25
2022-12-04T09:43:49.747Z,101878.50
2022-12-04T09:46:31.612Z,101872.31
2022-12-04T09:49:14.436Z,101878.84
2022-12-04T09:51:42.748Z,101862.16
2022-12-04T09:54:17.943Z,101877.13
2022-12-04T09:56:54.797Z,101863.88
2022-12-04T09:59:26.163Z,101846.50
2022-12-04T10:02:04.038Z,101870.03
2022-12-04T10:04:30.852Z,101866.47
2022-12-04T10:07:25.310Z,101870.09
2022-12-04T10:10:21.727Z,101862.91
2022-12-04T10:13:06.704Z,101864.78
2022-12-04T10:15:44.982Z,101872.94
2022-12-04T10:18:34.551Z,101876.66
2022-12-04T10:21:13.285Z,101877.44
2022-12-04T10:24:04.149Z,101864.94
2022-12-04T10:26:34.880Z,101870.31
2022-12-04T10:29:08.454Z,101862.31
2022-12-04T10:31:37.613Z,101863.34
2022-12-04T10:34:16.504Z,101823.72
2022-12-04T10:36:49.220Z,101850.69
2022-12-04T10:39:30.920Z,101846.34
2022-12-04T10:42:11.822Z,101858.69
2022-12-04T10:44:38.885Z,101856.72
2022-12-04T10:47:06.874Z,101858.63
2022-12-04T10:49:36.204Z,101864.78
2022-12-04T10:52:04.066Z,101862.03
2022-12-04T10:54:56.420Z,101854.22
2022-12-04T10:57:38.676Z,101863.72
2022-12-04T11:00:24.465Z,101861.91
2022-12-04T11:02:54.946Z,101851.41
2022-12-04T11:05:38.556Z,101849.81
2022-12-04T11:08:07.647Z,101851.41
2022-12-04T11:10:40.670Z,101850.47
2022-12-04T11:13:13.009Z,101840.56
2022-12-04T11:15:43.997Z,101833.44
2022-12-04T11:18:18.099Z,101835.13
2022-12-04T11:20:56.543Z,101830.81
2022-12-04T11:23:24.157Z,101839.44
2022-12-04T11:26:00.568Z,101821.88
2022-12-04T11:28:43.027Z,101809.50
2022-12-04T11:31:15.989Z,101823.50
2022-12-04T11:33:50.054Z,101811.25
2022-12-04T11:36:35.334Z,101814.59
2022-12-04T11:39:17.508Z,101816.50
2022-12-04T11:41:44.250Z,101811.91
2022-12-04T11:44:26.210Z,101808.28
2022-12-04T11:46:57.150Z,101817.06
2022-12-04T11:49:25.838Z,101804.66
2022-12-04T11:52:04.797Z,101789.84
2022-12-04T11:54:43.826Z,101804.66
2022-12-04T11:57:36.710Z,101802.81
2022-12-04T12:00:09.326Z,101804.59
2022-12-04T12:02:51.301Z,101788.78
2022-12-04T12:05:36.588Z,101809.75
2022-12-04T12:08:14.457Z,101792.06
2022-12-04T12:10:56.659Z,101799.06
2022-12-04T12:13:32.497Z,101797.16
2022-12-04T12:16:35.792Z,101791.00
2022-12-04T12:19:11.391Z,101794.13
2022-12-04T12:22:07.614Z,101787.25
2022-12-04T12:25:03.148Z,101786.13
2022-12-04T12:27:35.934Z,101782.47
2022-12-04T12:30:23.989Z,101786.19
2022-12-04T12:33:23.361Z,101788.75
2022-12-04T12:36:06.964Z,101786.84
2022-12-04T12:38:42.980Z,101777.00
2022-12-04T12:41:23.468Z,101777.84
2022-12-04T12:44:20.352Z,101780.16
2022-12-04T12:46:58.364Z,101763.56
2022-12-04T12:49:47.718Z,101785.59
2022-12-04T12:52:40.339Z,101763.28
2022-12-04T12:55:29.785Z,101765.88
2022-12-04T12:58:17.502Z,101762.34
2022-12-04T13:00:51.901Z,101763.28
2022-12-04T13:03:30.395Z,101761.38
2022-12-04T13:06:04.578Z,101754.91
2022-12-04T13:08:52.879Z,101742.66
2022-12-04T13:11:25.595Z,101775.66
2022-12-04T13:14:02.378Z,101759.56
2022-12-04T13:16:36.509Z,101759.56
2022-12-04T13:19:15.374Z,101759.44
2022-12-04T13:21:48.401Z,101747.19
2022-12-04T13:24:41.716Z,101764.06
2022-12-04T13:27:20.380Z,101766.75
2022-12-04T13:30:05.827Z,101767.66
2022-12-04T13:32:38.327Z,101773.91
2022-12-04T13:35:40.567Z,101771.19
2022-12-04T13:38:25.822Z,101769.38
2022-12-04T13:40:56.190Z,101769.44
2022-12-04T13:43:41.037Z,101772.13
2022-12-04T13:46:35.662Z,101758.75
2022-12-04T13:49:08.183Z,101763.19
2022-12-04T13:51:38.839Z,101754.31
2022-12-04T13:54:11.466Z,101762.97
2022-12-04T13:56:47.140Z,101754.91
2022-12-04T13:59:29.580Z,101770.09
2022-12-04T14:02:03.486Z,101755.97
2022-12-04T14:04:48.511Z,101764.56
2022-12-04T14:07:25.669Z,101740.81
2022-12-04T14:09:54.436Z,101765.47
2022-12-04T14:12:30.090Z,101761.72
2022-12-04T14:14:59.714Z,101749.44
2022-12-04T14:17:30.733Z,101762.78
2022-12-04T14:20:08.386Z,101754.03
2022-12-04T14:22:38.043Z,101768.16
2022-12-04T14:25:34.247Z,101761.72
2022-12-04T14:28:13.707Z,101763.56
2022-12-04T14:30:41.175Z,101760.94
2022-12-04T14:33:20.622Z,101755.84
2022-12-04T14:36:01.451Z,101768.00
2022-12-04T14:38:28.475Z,101756.56
2022-12-04T14:40:58.988Z,101757.31
2022-12-04T14:43:34.706Z,101762.56
2022-12-04T14:46:46.264Z,101751.19
2022-12-04T14:49:35.820Z,101761.66
2022-12-04T14:52:17.278Z,101752.78
2022-12-04T14:54:51.356Z,101757.31
2022-12-04T14:57:29.879Z,101769.00
2022-12-04T14:59:56.894Z,101748.66
2022-12-04T15:02:38.961Z,101758.31
2022-12-04T15:05:10.966Z,101753.78
2022-12-04T15:07:45.119Z,101749.22
2022-12-04T15:10:39.145Z,101750.31
2022-12-04T15:13:05.736Z,101754.63
2022-12-04T15:15:32.365Z,101754.69
2022-12-04T15:18:04.310Z,101764.56
2022-12-04T15:20:42.891Z,101760.38
2022-12-04T15:23:15.011Z,101741.88
2022-12-04T15:25:47.527Z,101761.94
2022-12-04T15:28:29.220Z,101768.22
2022-12-04T15:30:57.860Z,101766.53
2022-12-04T15:33:30.765Z,101777.25
2022-12-04T15:36:08.508Z,101772.00
2022-12-04T15:38:39.435Z,101778.78
2022-12-04T15:41:06.000Z,101775.47
2022-12-04T15:43:44.390Z,101792.97
2022-12-04T15:46:21.239Z,101777.81
2022-12-04T15:48:48.232Z,101777.66
2022-12-04T15:51:21.241Z,101778.53
2022-12-04T15:53:48.073Z,101773.97
2022-12-04T15:56:21.025Z,101777.44
2022-12-04T15:59:01.616Z,101775.63
2022-12-04T16:01:42.626Z,101773.91
2022-12-04T16:04:23.790Z,101761.72
2022-12-04T16:06:53.858Z,101787.44
2022-12-04T16:09:25.921Z,101779.50
2022-12-04T16:12:18.017Z,101786.53
2022-12-04T16:14:44.548Z,101789.41
2022-12-04T16:17:13.565Z,101793.69
2022-12-04T16:19:41.498Z,101794.47
2022-12-04T16:22:19.329Z,101789.97
2022-12-04T16:24:46.907Z,101799.84
2022-12-04T16:27:17.891Z,101796.44
2022-12-04T16:29:45.420Z,101801.69
2022-12-04T16:32:18.294Z,101793.91
2022-12-04T16:34:45.075Z,101787.66
2022-12-04T16:37:20.560Z,101798.19
2022-12-04T16:39:47.745Z,101796.31
2022-12-04T16:42:18.930Z,101777.03
2022-12-04T16:44:47.507Z,101785.03
2022-12-04T16:47:15.053Z,101786.72
2022-12-04T16:49:45.746Z,101802.56
2022-12-04T16:52:12.726Z,101803.44
2022-12-04T16:54:39.906Z,101799.84
2022-12-04T16:57:12.217Z,101799.84
2022-12-04T16:59:38.865Z,101795.66
2022-12-04T17:02:16.117Z,101804.38
2022-12-04T17:04:42.878Z,101801.69
2022-12-04T17:07:09.437Z,101805.31
2022-12-04T17:09:36.000Z,101798.34
2022-12-04T17:12:02.644Z,101784.44
2022-12-04T17:14:31.526Z,101803.53
2022-12-04T17:17:00.375Z,101804.38
2022-12-04T17:19:27.030Z,101792.81
2022-12-04T17:21:53.585Z,101796.53
2022-12-04T17:24:20.159Z,101813.25
2022-12-04T17:26:46.778Z,101790.28
2022-12-04T17:29:13.357Z,101799.22
2022-12-04T17:31:39.948Z,101805.16
2022-12-04T17:34:06.504Z,101778.34
2022-12-04T17:36:35.462Z,101815.94
2022-12-04T17:39:04.762Z,101815.16
2022-12-04T17:41:31.413Z,101818.84
2022-12-04T17:44:02.200Z,101826.06
2022-12-04T17:46:28.869Z,101828.91
2022-12-04T17:48:58.140Z,101811.31
2022-12-04T17:51:29.553Z,101832.50
2022-12-04T17:53:56.092Z,101838.53
2022-12-04T17:56:27.036Z,101822.00
2022-12-04T17:58:54.089Z,101819.25
2022-12-04T18:01:23.709Z,101834.06
2022-12-04T18:03:58.736Z,101823.81
2022-12-04T18:06:27.987Z,101841.50
2022-12-04T18:08:55.302Z,101849.50
2022-12-04T18:11:25.184Z,101843.25
2022-12-04T18:13:57.521Z,101842.38
2022-12-04T18:16:25.267Z,101835.25
2022-12-04T18:18:56.403Z,101835.31
2022-12-04T18:21:23.321Z,101827.38
2022-12-04T18:23:50.625Z,101827.25
2022-12-04T18:26:20.248Z,101837.06
2022-12-04T18:28:47.932Z,101852.28
2022-12-04T18:31:16.340Z,101830.16
2022-12-04T18:33:43.878Z,101833.34
2022-12-04T18:36:20.765Z,101823.81
2022-12-04T18:38:52.855Z,101822.94
2022-12-04T18:41:19.602Z,101793.81
2022-12-04T18:43:46.734Z,101813.78
2022-12-04T18:46:15.515Z,101816.53
2022-12-04T18:48:43.640Z,101827.91
2022-12-04T18:51:22.225Z,101822.50
2022-12-04T18:53:55.581Z,101833.34
2022-12-04T18:56:24.907Z,101815.59
2022-12-04T18:58:57.220Z,101828.63
2022-12-04T19:01:24.402Z,101827.69
2022-12-04T19:03:56.980Z,101823.16
2022-12-04T19:06:31.900Z,101815.28
2022-12-04T19:09:04.034Z,101827.63
2022-12-04T19:11:33.572Z,101832.03
2022-12-04T19:14:01.785Z,101825.00
2022-12-04T19:16:29.386Z,101827.53
2022-12-04T19:18:59.611Z,101803.88
2022-12-04T19:21:26.408Z,101831.16
2022-12-04T19:23:56.747Z,101828.41
2022-12-04T19:26:26.801Z,101814.38
2022-12-04T19:28:55.092Z,101819.34
2022-12-04T19:31:24.486Z,101826.44
2022-12-04T19:33:52.836Z,101825.50
2022-12-04T19:36:20.431Z,101823.81
2022-12-04T19:38:49.544Z,101823.66
2022-12-04T19:41:19.114Z,101829.91
2022-12-04T19:43:48.949Z,101823.66
2022-12-04T19:46:18.389Z,101825.63
2022-12-04T19:49:01.800Z,101829.91
2022-12-04T19:51:33.139Z,101837.78
2022-12-04T19:54:03.444Z,101839.63
2022-12-04T19:56:31.805Z,101834.22
2022-12-04T19:59:00.768Z,101829.91
2022-12-04T20:01:32.382Z,101841.44
2022-12-04T20:04:09.105Z,101835.97
2022-12-04T20:06:43.534Z,101835.16
2022-12-04T20:09:23.185Z,101814.94
2022-12-04T20:11:49.730Z,101832.53
2022-12-04T20:14:16.792Z,101833.44
2022-12-04T20:16:43.440Z,101838.44
2022-12-04T20:19:14.311Z,101820.75
2022-12-04T20:21:41.053Z,101837.50
2022-12-04T20:24:08.007Z,101835.00
2022-12-04T20:26:38.263Z,101817.41
2022-12-04T20:29:13.168Z,101838.34
2022-12-04T20:31:42.260Z,101830.66
2022-12-04T20:34:13.631Z,101834.00
2022-12-04T20:36:42.933Z,101827.44
2022-12-04T20:39:11.322Z,101830.94
2022-12-04T20:41:38.302Z,101818.63
2022-12-04T20:44:06.627Z,101823.09
2022-12-04T20:46:35.890Z,101830.06
2022-12-04T20:49:05.816Z,101839.03
2022-12-04T20:51:35.488Z,101823.66
2022-12-04T20:54:03.438Z,101827.28
2022-12-04T20:56:33.164Z,101835.38
2022-12-04T20:59:02.244Z,101840.63
2022-12-04T21:01:29.972Z,101840.53
2022-12-04T21:03:58.895Z,101840.53
2022-12-04T21:06:34.603Z,101818.63
2022-12-04T21:09:05.818Z,101839.53
2022-12-04T21:11:39.996Z,101832.31
2022-12-04T21:14:29.297Z,101825.38
2022-12-04T21:16:58.390Z,101840.47
2022-12-04T21:19:25.292Z,101842.38
2022-12-04T21:21:52.587Z,101834.59
2022-12-04T21:24:21.171Z,101835.31
2022-12-04T21:26:50.066Z,101849.34
2022-12-04T21:29:16.783Z,101847.63
2022-12-04T21:31:43.572Z,101837.00
2022-12-04T21:34:15.216Z,101847.63
2022-12-04T21:36:42.952Z,101844.03
2022-12-04T21:39:09.914Z,101834.44
2022-12-04T21:41:55.180Z,101844.75
2022-12-04T21:44:24.103Z,101836.00
2022-12-04T21:46:51.124Z,101850.13
2022-12-04T21:49:18.855Z,101839.69
2022-12-04T21:51:57.356Z,101849.19
2022-12-04T21:54:25.061Z,101838.56
2022-12-04T21:56:51.597Z,101846.56
2022-12-04T21:59:18.207Z,101843.88
2022-12-04T22:01:45.156Z,101832.25
2022-12-04T22:04:11.757Z,101840.25
2022-12-04T22:06:38.465Z,101838.50
2022-12-04T22:09:10.920Z,101840.41
2022-12-04T22:11:38.537Z,101828.97
2022-12-04T22:14:08.153Z,101823.81
2022-12-04T22:16:39.889Z,101830.84
2022-12-04T22:19:08.586Z,101851.25
2022-12-04T22:21:35.150Z,101834.59
2022-12-04T22:24:03.692Z,101844.09
2022-12-04T22:26:31.708Z,101845.94
2022-12-04T22:28:58.760Z,101838.06
2022-12-04T22:31:27.786Z,101833.31
2022-12-04T22:33:56.562Z,101839.53
2022-12-04T22:36:25.732Z,101832.47
2022-12-04T22:39:08.756Z,101815.09
2022-12-04T22:41:38.964Z,101825.72
2022-12-04T22:44:06.115Z,101836.00
2022-12-04T22:46:33.080Z,101845.56
2022-12-04T22:49:04.476Z,101851.03
2022-12-04T22:51:31.035Z,101848.25
2022-12-04T22:53:58.312Z,101844.59
2022-12-04T22:56:32.018Z,101842.22
2022-12-04T22:58:59.676Z,101850.06
2022-12-04T23:01:36.470Z,101842.16
2022-12-04T23:04:04.426Z,101828.91
2022-12-04T23:06:32.706Z,101819.28
2022-12-04T23:09:05.885Z,101834.72
2022-12-04T23:11:32.563Z,101835.78
2022-12-04T23:14:01.494Z,101842.56
2022-12-04T23:16:32.609Z,101841.75
2022-12-04T23:18:59.594Z,101838.06
2022-12-04T23:21:27.092Z,101832.50
2022-12-04T23:23:59.011Z,101837.81
2022-12-04T23:26:30.925Z,101829.75
2022-12-04T23:28:57.838Z,101835.13
2022-12-04T23:31:26.893Z,101805.00
2022-12-04T23:33:55.873Z,101835.00
2022-12-04T23:36:22.668Z,101830.53
2022-12-04T23:38:49.392Z,101820.13
2022-12-04T23:41:21.727Z,101826.81
2022-12-04T23:43:49.962Z,101834.00
2022-12-04T23:46:21.373Z,101827.69
2022-12-04T23:48:48.315Z,101830.31
2022-12-04T23:51:17.186Z,101821.28
2022-12-04T23:53:44.524Z,101822.16
2022-12-04T23:56:21.962Z,101817.78
2022-12-04T23:58:55.376Z,101818.66
